SBQV

Details ICAO SBQV (VDC)
Name VITORIA DA CONQUISTA
Region Brazil
Timezone America/Bahia (UTC-3.0)
Plans Departing 7
Arriving 8
Stats Elevation 2,998 ft / 914 m (AMSL)
Location -14.862759° -40.863104°
Runways 1
Magnetic Variation 23.398° W
Sunrise 2017-03-25 08:49:11 UTC / 2017-03-25 05:49:11 Local
Sunset 2017-03-25 20:51:59 UTC / 2017-03-25 17:51:59 Local
Advertisement - Login to hide

Runways

ID Width Length Bearing (true) Bearing (mag) Surface Threshold Offset Overrun Length
15 98 ft / 30 m 5,831 ft / 1,777 m 126.17° 149.57° Asphalt 0 ft / 0 m 175 ft / 53 m
33 98 ft / 30 m 5,831 ft / 1,777 m 306.17° 329.57° Asphalt 0 ft / 0 m 0 ft / 0 m

Map

Weather

Temperature
Clouds and Precipitation
Forecast for 2017-03-26 00:00 UTC. Updated 8 minutes ago
Winds

METAR

SBQV 251800Z 19005KT 9999 BKN040 30/14 Q1015

TAF

Not found

Frequencies

Tower 130.30 MHz RDO
Warning: Do not use this data for real-world aviation or navigation. No guarantee of current accuracy is given.